createdAt,value
2024-02-01T00:01:58.368Z,5.55
2024-02-01T00:04:24.997Z,6.57
2024-02-01T00:06:53.004Z,6.25
2024-02-01T00:09:20.428Z,5.47
2024-02-01T00:11:47.178Z,5.10
2024-02-01T00:14:13.911Z,4.85
2024-02-01T00:16:41.705Z,5.97
2024-02-01T00:19:08.530Z,5.88
2024-02-01T00:21:35.167Z,6.15
2024-02-01T00:24:01.830Z,5.00
2024-02-01T00:26:28.618Z,4.63
2024-02-01T00:28:55.472Z,5.07
2024-02-01T00:31:22.194Z,4.90
2024-02-01T00:33:49.400Z,6.63
2024-02-01T00:36:16.268Z,5.47
2024-02-01T00:38:43.959Z,6.47
2024-02-01T00:41:10.577Z,5.28
2024-02-01T00:43:37.312Z,6.05
2024-02-01T00:46:03.998Z,5.45
2024-02-01T00:48:31.398Z,5.78
2024-02-01T00:50:58.173Z,5.65
2024-02-01T00:53:25.184Z,5.10
2024-02-01T00:55:51.775Z,5.90
2024-02-01T00:58:18.488Z,5.30
2024-02-01T01:00:45.703Z,5.05
2024-02-01T01:03:12.781Z,5.20
2024-02-01T01:05:39.437Z,5.07
2024-02-01T01:08:06.846Z,6.43
2024-02-01T01:10:33.932Z,5.97
2024-02-01T01:13:00.565Z,5.97
2024-02-01T01:15:27.240Z,7.65
2024-02-01T01:17:53.960Z,6.35
2024-02-01T01:20:20.654Z,5.60
2024-02-01T01:22:47.868Z,5.47
2024-02-01T01:25:14.985Z,6.10
2024-02-01T01:27:41.688Z,7.63
2024-02-01T01:30:08.921Z,5.70
2024-02-01T01:32:35.750Z,6.40
2024-02-01T01:35:04.003Z,7.00
2024-02-01T01:37:30.662Z,7.10
2024-02-01T01:39:57.220Z,6.32
2024-02-01T01:42:23.859Z,5.88
2024-02-01T01:44:50.556Z,7.03
2024-02-01T01:47:17.453Z,6.88
2024-02-01T01:49:44.465Z,7.03
2024-02-01T01:52:12.423Z,8.07
2024-02-01T01:54:40.217Z,6.30
2024-02-01T01:57:07.304Z,7.85
2024-02-01T01:59:34.160Z,5.70
2024-02-01T02:02:01.749Z,7.68
2024-02-01T02:04:28.416Z,6.90
2024-02-01T02:06:57.404Z,7.28
2024-02-01T02:09:24.586Z,7.38
2024-02-01T02:11:51.312Z,6.72
2024-02-01T02:14:18.097Z,7.43
2024-02-01T02:16:44.894Z,7.47
2024-02-01T02:19:11.978Z,6.45
2024-02-01T02:21:49.287Z,7.70
2024-02-01T02:29:11.280Z,6.13
2024-02-01T02:31:37.918Z,7.88
2024-02-01T02:34:04.629Z,6.22
2024-02-01T02:36:31.333Z,6.78
2024-02-01T02:38:58.172Z,6.35
2024-02-01T02:41:25.045Z,5.82
2024-02-01T02:43:51.665Z,7.65
2024-02-01T02:46:18.324Z,7.88
2024-02-01T02:48:45.189Z,8.82
2024-02-01T02:51:12.486Z,6.53
2024-02-01T02:53:39.560Z,10.02
2024-02-01T02:56:09.621Z,6.85
2024-02-01T02:58:38.022Z,8.43
2024-02-01T03:01:09.349Z,9.77
2024-02-01T03:03:42.148Z,9.25
2024-02-01T03:06:10.372Z,7.22
2024-02-01T03:08:44.246Z,8.32
2024-02-01T03:11:12.438Z,4.82
2024-02-01T03:13:43.492Z,7.63
2024-02-01T03:16:22.007Z,4.68
2024-02-01T03:18:50.425Z,4.22
2024-02-01T03:21:19.036Z,4.20
2024-02-01T03:23:47.962Z,4.90
2024-02-01T03:26:15.156Z,3.85
2024-02-01T03:28:43.055Z,3.38
2024-02-01T03:31:10.716Z,3.33
2024-02-01T03:33:40.877Z,3.20
2024-02-01T03:36:10.839Z,3.15
2024-02-01T03:38:38.310Z,3.55
2024-02-01T03:41:06.030Z,3.30
2024-02-01T03:43:32.825Z,2.92
2024-02-01T03:46:00.583Z,3.15
2024-02-01T03:48:27.651Z,3.33
2024-02-01T03:50:54.462Z,3.03
2024-02-01T03:53:21.111Z,3.60
2024-02-01T03:55:50.609Z,3.15
2024-02-01T03:58:22.720Z,2.92
2024-02-01T04:00:51.461Z,2.40
2024-02-01T04:03:18.635Z,2.17
2024-02-01T04:05:45.993Z,2.90
2024-02-01T04:08:18.785Z,2.85
2024-02-01T04:10:46.789Z,2.75
2024-02-01T04:13:15.265Z,3.03
2024-02-01T04:15:43.849Z,2.90
2024-02-01T04:18:11.023Z,2.92
2024-02-01T04:20:40.406Z,2.72
2024-02-01T04:23:07.237Z,2.75
2024-02-01T04:25:33.878Z,2.25
2024-02-01T04:28:02.755Z,2.42
2024-02-01T04:30:29.802Z,2.70
2024-02-01T04:32:56.719Z,3.03
2024-02-01T04:35:23.629Z,2.58
2024-02-01T04:37:54.756Z,2.50
2024-02-01T04:40:23.285Z,2.20
2024-02-01T04:42:52.953Z,2.78
2024-02-01T04:45:20.169Z,2.85
2024-02-01T04:47:47.615Z,3.63
2024-02-01T04:50:14.593Z,2.80
2024-02-01T04:52:42.423Z,2.45
2024-02-01T04:55:11.153Z,2.97
2024-02-01T04:57:42.200Z,3.15
2024-02-01T05:00:18.699Z,2.65
2024-02-01T05:02:48.893Z,2.60
2024-02-01T05:05:17.630Z,2.80
2024-02-01T05:07:44.565Z,2.55
2024-02-01T05:10:14.038Z,2.45
2024-02-01T05:12:41.640Z,2.83
2024-02-01T05:15:10.156Z,2.80
2024-02-01T05:17:37.840Z,2.75
2024-02-01T05:20:10.290Z,3.05
2024-02-01T05:22:37.388Z,2.50
2024-02-01T05:25:16.505Z,2.83
2024-02-01T05:27:52.090Z,2.78
2024-02-01T05:30:24.074Z,2.75
2024-02-01T05:32:56.656Z,2.90
2024-02-01T05:35:29.796Z,2.90
2024-02-01T05:37:58.600Z,2.80
2024-02-01T05:40:25.457Z,3.08
2024-02-01T05:42:52.123Z,2.35
2024-02-01T05:45:20.326Z,2.70
2024-02-01T05:47:47.623Z,2.78
2024-02-01T05:50:18.436Z,2.92
2024-02-01T05:52:45.206Z,2.85
2024-02-01T05:55:14.768Z,2.45
2024-02-01T05:57:42.724Z,2.65
2024-02-01T06:00:21.308Z,2.83
2024-02-01T06:02:48.484Z,2.97
2024-02-01T06:05:15.293Z,3.25
2024-02-01T06:07:43.322Z,2.75
2024-02-01T06:10:10.205Z,2.63
2024-02-01T06:12:39.570Z,2.40
2024-02-01T06:15:08.005Z,3.13
2024-02-01T06:17:35.549Z,3.03
2024-02-01T06:20:02.634Z,3.83
2024-02-01T06:22:29.628Z,3.17
2024-02-01T06:24:56.270Z,3.20
2024-02-01T06:27:23.524Z,3.10
2024-02-01T06:29:50.211Z,3.42
2024-02-01T06:32:22.054Z,2.92
2024-02-01T06:34:57.272Z,2.70
2024-02-01T06:37:24.051Z,3.03
2024-02-01T06:40:11.932Z,2.25
2024-02-01T06:43:10.689Z,3.38
2024-02-01T06:46:02.165Z,2.30
2024-02-01T06:48:31.648Z,2.40
2024-02-01T06:51:11.650Z,2.65
2024-02-01T06:53:45.608Z,1.83
2024-02-01T06:56:29.786Z,2.55
2024-02-01T06:59:19.003Z,2.15
2024-02-01T07:02:04.703Z,2.20
2024-02-01T07:04:43.538Z,2.10
2024-02-01T07:07:20.572Z,2.58
2024-02-01T07:12:41.870Z,2.50
2024-02-01T07:15:28.637Z,1.80
2024-02-01T07:18:08.606Z,2.33
2024-02-01T07:20:52.998Z,2.28
2024-02-01T07:23:20.901Z,2.33
2024-02-01T07:26:19.126Z,3.15
2024-02-01T07:29:04.869Z,2.17
2024-02-01T07:31:50.211Z,2.75
2024-02-01T07:34:35.395Z,2.20
2024-02-01T07:37:20.706Z,2.15
2024-02-01T07:40:05.942Z,3.08
2024-02-01T07:42:50.739Z,2.65
2024-02-01T07:45:36.021Z,2.13
2024-02-01T07:48:21.043Z,2.60
2024-02-01T07:51:06.518Z,2.47
2024-02-01T07:53:52.019Z,2.40
2024-02-01T07:56:37.303Z,2.83
2024-02-01T07:59:11.323Z,1.92
2024-02-01T08:01:58.185Z,2.53
2024-02-01T08:04:44.853Z,2.92
2024-02-01T08:07:30.052Z,3.03
2024-02-01T08:10:00.303Z,3.35
2024-02-01T08:12:35.111Z,2.10
2024-02-01T08:15:02.528Z,2.10
2024-02-01T08:17:29.304Z,3.20
2024-02-01T08:19:57.908Z,2.30
2024-02-01T08:22:24.626Z,2.60
2024-02-01T08:24:57.826Z,2.65
2024-02-01T08:27:26.110Z,3.03
2024-02-01T08:29:53.001Z,3.17
2024-02-01T08:32:21.241Z,2.50
2024-02-01T08:34:48.405Z,4.10
2024-02-01T08:37:15.054Z,3.45
2024-02-01T08:39:47.409Z,3.38
2024-02-01T08:42:14.645Z,2.92
2024-02-01T08:44:41.527Z,2.72
2024-02-01T08:47:08.160Z,2.92
2024-02-01T08:49:40.560Z,2.95
2024-02-01T08:52:07.455Z,3.58
2024-02-01T08:54:34.430Z,2.85
2024-02-01T08:57:01.766Z,2.83
2024-02-01T08:59:29.529Z,3.17
2024-02-01T09:01:56.253Z,3.28
2024-02-01T09:04:23.496Z,3.10
2024-02-01T09:06:56.626Z,3.33
2024-02-01T09:09:33.043Z,2.33
2024-02-01T09:12:01.091Z,4.20
2024-02-01T09:14:28.812Z,3.60
2024-02-01T09:16:55.835Z,2.88
2024-02-01T09:19:22.851Z,3.53
2024-02-01T09:21:50.318Z,2.95
2024-02-01T09:24:18.283Z,2.97
2024-02-01T09:26:47.876Z,3.67
2024-02-01T09:29:14.812Z,4.07
2024-02-01T09:31:41.693Z,3.42
2024-02-01T09:34:10.561Z,2.97
2024-02-01T09:36:37.461Z,2.95
2024-02-01T09:39:04.500Z,3.13
2024-02-01T09:41:32.267Z,3.10
2024-02-01T09:44:00.951Z,3.50
2024-02-01T09:46:29.684Z,2.75
2024-02-01T09:48:58.529Z,3.20
2024-02-01T09:51:25.348Z,3.00
2024-02-01T09:53:52.850Z,3.03
2024-02-01T09:56:20.018Z,3.30
2024-02-01T09:58:46.715Z,3.75
2024-02-01T10:01:14.694Z,3.38
2024-02-01T10:03:46.489Z,3.53
2024-02-01T10:06:14.539Z,3.47
2024-02-01T10:08:41.784Z,3.08
2024-02-01T10:11:08.978Z,3.15
2024-02-01T10:13:37.118Z,3.25
2024-02-01T10:16:14.077Z,3.17
2024-02-01T10:18:46.312Z,3.58
2024-02-01T10:21:32.979Z,3.53
2024-02-01T10:24:08.726Z,3.42
2024-02-01T10:26:37.517Z,4.22
2024-02-01T10:29:04.406Z,3.75
2024-02-01T10:31:32.818Z,2.92
2024-02-01T10:34:13.264Z,4.60
2024-02-01T10:36:44.455Z,3.47
2024-02-01T10:39:20.232Z,3.40
2024-02-01T10:41:54.819Z,3.78
2024-02-01T10:44:32.863Z,3.60
2024-02-01T10:47:03.579Z,3.83
2024-02-01T10:49:33.269Z,3.72
2024-02-01T10:52:00.608Z,3.55
2024-02-01T10:54:31.472Z,4.00
2024-02-01T10:57:05.999Z,3.67
2024-02-01T10:59:33.751Z,4.07
2024-02-01T11:02:00.929Z,3.92
2024-02-01T11:04:35.981Z,3.47
2024-02-01T11:07:03.325Z,2.95
2024-02-01T11:09:31.164Z,2.85
2024-02-01T11:11:59.388Z,2.97
2024-02-01T11:14:30.066Z,3.75
2024-02-01T11:17:05.092Z,3.47
2024-02-01T11:19:39.132Z,2.78
2024-02-01T11:22:13.129Z,3.83
2024-02-01T11:24:42.679Z,3.45
2024-02-01T11:27:13.861Z,3.80
2024-02-01T11:29:47.277Z,3.45
2024-02-01T11:32:19.261Z,3.95
2024-02-01T11:34:51.288Z,3.35
2024-02-01T11:37:19.148Z,3.67
2024-02-01T11:39:50.559Z,3.10
2024-02-01T11:42:24.221Z,3.80
2024-02-01T11:45:02.432Z,3.35
2024-02-01T11:47:31.020Z,3.97
2024-02-01T11:49:57.881Z,3.80
2024-02-01T11:52:34.259Z,3.22
2024-02-01T11:55:01.383Z,2.83
2024-02-01T11:57:31.442Z,3.72
2024-02-01T11:59:58.319Z,3.63
2024-02-01T12:02:31.800Z,3.42
2024-02-01T12:05:01.159Z,3.30
2024-02-01T12:07:27.915Z,3.72
2024-02-01T12:09:56.390Z,3.88
2024-02-01T12:12:24.853Z,3.35
2024-02-01T12:14:53.829Z,3.72
2024-02-01T12:17:25.760Z,3.10
2024-02-01T12:19:58.454Z,4.50
2024-02-01T12:22:30.533Z,3.75
2024-02-01T12:24:59.305Z,3.92
2024-02-01T12:27:26.134Z,3.22
2024-02-01T12:29:53.028Z,3.22
2024-02-01T12:32:19.734Z,3.33
2024-02-01T12:34:46.530Z,3.67
2024-02-01T12:37:14.863Z,3.25
2024-02-01T12:39:43.287Z,3.60
2024-02-01T12:42:16.113Z,4.40
2024-02-01T12:44:43.615Z,3.65
2024-02-01T12:47:10.782Z,3.30
2024-02-01T12:49:37.663Z,3.55
2024-02-01T12:52:07.474Z,3.38
2024-02-01T12:54:41.230Z,3.47
2024-02-01T12:57:09.524Z,3.50
2024-02-01T12:59:38.465Z,3.72
2024-02-01T13:02:06.233Z,3.25
2024-02-01T13:04:33.000Z,3.47
2024-02-01T13:06:59.865Z,3.95
2024-02-01T13:09:29.966Z,3.45
2024-02-01T13:11:59.686Z,3.63
2024-02-01T13:14:35.646Z,4.07
2024-02-01T13:17:11.830Z,2.83
2024-02-01T13:19:41.895Z,3.63
2024-02-01T13:22:09.140Z,3.13
2024-02-01T13:24:35.907Z,3.55
2024-02-01T13:27:03.071Z,4.45
2024-02-01T13:29:29.930Z,4.28
2024-02-01T13:31:56.802Z,2.95
2024-02-01T13:34:23.810Z,3.70
2024-02-01T13:36:50.609Z,3.33
2024-02-01T13:39:17.418Z,2.83
2024-02-01T13:41:47.918Z,4.45
2024-02-01T13:44:14.779Z,3.42
2024-02-01T13:46:41.394Z,3.75
2024-02-01T13:49:08.204Z,3.30
2024-02-01T13:51:40.284Z,2.97
2024-02-01T13:54:07.057Z,3.90
2024-02-01T13:56:33.674Z,3.10
2024-02-01T13:59:00.427Z,3.60
2024-02-01T14:01:27.842Z,3.55
2024-02-01T14:03:54.635Z,3.28
2024-02-01T14:06:21.968Z,3.17
2024-02-01T14:08:48.740Z,2.92
2024-02-01T14:11:16.044Z,3.15
2024-02-01T14:13:42.994Z,3.13
2024-02-01T14:16:10.125Z,3.10
2024-02-01T14:18:37.855Z,3.15
2024-02-01T14:21:05.285Z,2.63
2024-02-01T14:23:32.076Z,2.78
2024-02-01T14:25:58.866Z,2.70
2024-02-01T14:28:26.527Z,2.95
2024-02-01T14:30:53.251Z,2.97
2024-02-01T14:33:21.145Z,3.28
2024-02-01T14:35:48.787Z,4.10
2024-02-01T14:38:15.479Z,3.20
2024-02-01T14:40:42.156Z,4.00
2024-02-01T14:43:08.797Z,3.33
2024-02-01T14:45:35.655Z,3.05
2024-02-01T14:48:03.046Z,4.38
2024-02-01T14:50:31.170Z,3.40
2024-02-01T14:52:57.860Z,3.22
2024-02-01T14:55:24.523Z,3.33
2024-02-01T14:57:51.228Z,3.05
2024-02-01T15:00:27.115Z,2.92
2024-02-01T15:02:54.828Z,3.28
2024-02-01T15:05:22.047Z,3.03
2024-02-01T15:07:49.018Z,2.75
2024-02-01T15:10:16.406Z,2.63
2024-02-01T15:12:47.153Z,2.88
2024-02-01T15:15:14.022Z,3.38
2024-02-01T15:17:42.891Z,3.40
2024-02-01T15:20:10.044Z,2.88
2024-02-01T15:22:37.544Z,4.03
2024-02-01T15:25:04.789Z,3.67
2024-02-01T15:27:31.918Z,4.22
2024-02-01T15:29:58.843Z,3.28
2024-02-01T15:32:25.712Z,3.78
2024-02-01T15:34:52.440Z,3.78
2024-02-01T15:37:20.310Z,2.88
2024-02-01T15:39:46.869Z,4.15
2024-02-01T15:42:13.568Z,3.65
2024-02-01T15:44:43.201Z,3.67
2024-02-01T15:47:09.875Z,3.15
2024-02-01T15:49:39.171Z,3.60
2024-02-01T15:52:06.872Z,3.83
2024-02-01T15:54:33.594Z,3.90
2024-02-01T15:57:01.232Z,3.30
2024-02-01T15:59:27.923Z,3.85
2024-02-01T16:02:13.460Z,3.88
2024-02-01T16:04:40.159Z,3.22
2024-02-01T16:07:07.098Z,3.70
2024-02-01T16:09:41.702Z,5.50
2024-02-01T16:12:17.471Z,3.08
2024-02-01T16:14:44.667Z,3.50
2024-02-01T16:17:12.881Z,3.45
2024-02-01T16:19:40.450Z,3.17
2024-02-01T16:22:11.557Z,3.20
2024-02-01T16:24:42.920Z,2.85
2024-02-01T16:27:38.337Z,3.08
2024-02-01T16:30:35.822Z,3.22
2024-02-01T16:33:02.638Z,3.25
2024-02-01T16:35:41.378Z,2.83
2024-02-01T16:38:16.649Z,2.88
2024-02-01T16:40:43.256Z,2.67
2024-02-01T16:43:22.485Z,3.40
2024-02-01T16:45:49.607Z,3.08
2024-02-01T16:48:17.520Z,2.92
2024-02-01T16:50:48.135Z,2.78
2024-02-01T16:53:35.563Z,4.05
2024-02-01T16:56:03.557Z,3.13
2024-02-01T16:58:50.817Z,2.97
2024-02-01T17:04:03.189Z,3.20
2024-02-01T17:06:31.221Z,3.50
2024-02-01T17:08:58.099Z,2.95
2024-02-01T17:11:34.089Z,3.83
2024-02-01T17:14:21.195Z,2.80
2024-02-01T17:17:01.757Z,3.22
2024-02-01T17:19:35.013Z,3.35
2024-02-01T17:22:26.453Z,2.70
2024-02-01T17:24:55.305Z,3.15
2024-02-01T17:27:30.906Z,2.50
2024-02-01T17:29:59.035Z,2.85
2024-02-01T17:32:35.068Z,3.00
2024-02-01T17:35:08.890Z,3.53
2024-02-01T17:37:40.593Z,3.67
2024-02-01T17:40:14.991Z,3.67
2024-02-01T17:42:43.580Z,5.18
2024-02-01T17:45:20.207Z,6.38
2024-02-01T17:47:56.164Z,4.47
2024-02-01T17:50:33.742Z,3.93
2024-02-01T17:53:05.352Z,4.00
2024-02-01T17:55:51.583Z,3.85
2024-02-01T17:58:57.817Z,3.63
2024-02-01T18:01:30.459Z,3.22
2024-02-01T18:03:59.641Z,3.70
2024-02-01T18:06:42.547Z,3.78
2024-02-01T18:09:13.073Z,3.42
2024-02-01T18:11:49.179Z,4.05
2024-02-01T18:14:16.190Z,3.63
2024-02-01T18:16:43.297Z,3.10
2024-02-01T18:19:20.436Z,3.67
2024-02-01T18:21:48.020Z,3.58
2024-02-01T18:24:40.791Z,3.65
2024-02-01T18:27:11.068Z,3.60
2024-02-01T18:29:56.447Z,5.97
2024-02-01T18:32:28.324Z,3.38
2024-02-01T18:34:55.577Z,3.33
2024-02-01T18:37:27.915Z,4.18
2024-02-01T18:39:56.109Z,3.78
2024-02-01T18:42:30.417Z,3.75
2024-02-01T18:44:57.283Z,3.95
2024-02-01T18:47:31.280Z,3.75
2024-02-01T18:50:00.485Z,4.18
2024-02-01T18:52:27.322Z,3.13
2024-02-01T18:54:54.689Z,3.22
2024-02-01T18:57:35.074Z,3.42
2024-02-01T19:00:06.074Z,4.28
2024-02-01T19:02:49.308Z,3.95
2024-02-01T19:05:17.063Z,4.40
2024-02-01T19:07:45.606Z,3.75
2024-02-01T19:10:29.242Z,4.38
2024-02-01T19:12:56.052Z,3.83
2024-02-01T19:15:46.577Z,4.32
2024-02-01T19:18:15.796Z,3.83
2024-02-01T19:20:44.998Z,4.35
2024-02-01T19:23:21.877Z,4.30
2024-02-01T19:28:47.894Z,4.40
2024-02-01T19:31:17.705Z,4.75
2024-02-01T19:33:47.989Z,5.25
2024-02-01T19:36:33.947Z,4.32
2024-02-01T19:39:10.664Z,3.95
2024-02-01T19:44:09.586Z,3.95
2024-02-01T19:46:37.224Z,4.63
2024-02-01T19:49:04.511Z,3.47
2024-02-01T19:51:31.915Z,4.68
2024-02-01T19:53:59.153Z,4.60
2024-02-01T19:56:26.182Z,4.15
2024-02-01T19:58:53.498Z,3.88
2024-02-01T20:01:21.184Z,3.55
2024-02-01T20:03:48.642Z,3.65
2024-02-01T20:06:16.183Z,4.80
2024-02-01T20:08:43.917Z,3.90
2024-02-01T20:11:11.690Z,4.30
2024-02-01T20:13:39.630Z,4.40
2024-02-01T20:16:09.480Z,3.88
2024-02-01T20:18:37.382Z,4.30
2024-02-01T20:21:05.429Z,4.28
2024-02-01T20:23:32.654Z,4.00
2024-02-01T20:26:06.153Z,3.90
2024-02-01T20:28:32.853Z,4.20
2024-02-01T20:30:59.689Z,4.50
2024-02-01T20:33:27.618Z,3.95
2024-02-01T20:35:56.052Z,4.35
2024-02-01T20:38:22.832Z,4.40
2024-02-01T20:40:54.735Z,4.32
2024-02-01T20:43:25.034Z,4.28
2024-02-01T20:45:57.369Z,4.07
2024-02-01T20:48:46.513Z,4.32
2024-02-01T20:51:51.754Z,4.75
2024-02-01T20:54:19.723Z,5.75
2024-02-01T20:57:06.580Z,4.55
2024-02-01T20:59:44.664Z,4.45
2024-02-01T21:02:55.116Z,3.08
2024-02-01T21:05:42.531Z,4.05
2024-02-01T21:08:25.066Z,3.83
2024-02-01T21:10:52.165Z,3.50
2024-02-01T21:13:21.449Z,4.72
2024-02-01T21:15:49.795Z,4.32
2024-02-01T21:18:20.324Z,4.10
2024-02-01T21:20:48.934Z,4.30
2024-02-01T21:23:24.862Z,3.85
2024-02-01T21:26:25.247Z,3.50
2024-02-01T21:29:04.235Z,3.08
2024-02-01T21:31:53.025Z,3.90
2024-02-01T21:34:22.040Z,4.57
2024-02-01T21:37:03.146Z,3.47
2024-02-01T21:39:54.690Z,3.70
2024-02-01T21:42:27.799Z,3.53
2024-02-01T21:44:55.791Z,4.13
2024-02-01T21:47:22.432Z,3.20
2024-02-01T21:49:49.112Z,4.05
2024-02-01T21:52:19.589Z,3.58
2024-02-01T21:54:46.677Z,3.30
2024-02-01T21:57:13.917Z,4.03
2024-02-01T21:59:40.708Z,4.03
2024-02-01T22:02:07.738Z,4.10
2024-02-01T22:04:37.962Z,3.22
2024-02-01T22:07:05.046Z,3.13
2024-02-01T22:09:33.118Z,3.72
2024-02-01T22:12:01.478Z,3.30
2024-02-01T22:14:28.217Z,3.80
2024-02-01T22:16:55.179Z,3.17
2024-02-01T22:19:22.072Z,3.65
2024-02-01T22:21:48.720Z,3.13
2024-02-01T22:24:15.530Z,3.15
2024-02-01T22:26:42.262Z,3.67
2024-02-01T22:29:09.186Z,3.30
2024-02-01T22:31:36.207Z,2.97
2024-02-01T22:34:03.156Z,2.80
2024-02-01T22:36:30.127Z,2.80
2024-02-01T22:38:56.995Z,2.90
2024-02-01T22:41:24.079Z,2.95
2024-02-01T22:43:50.708Z,3.17
2024-02-01T22:46:17.410Z,3.42
2024-02-01T22:48:44.451Z,3.85
2024-02-01T22:51:11.251Z,2.88
2024-02-01T22:53:38.342Z,3.45
2024-02-01T22:56:05.173Z,3.17
2024-02-01T22:58:31.890Z,3.28
2024-02-01T23:00:58.621Z,3.00
2024-02-01T23:03:25.353Z,3.33
2024-02-01T23:05:52.155Z,3.90
2024-02-01T23:08:18.948Z,4.28
2024-02-01T23:10:45.744Z,4.28
2024-02-01T23:13:12.447Z,3.47
2024-02-01T23:15:39.166Z,3.75
2024-02-01T23:18:06.897Z,4.45
2024-02-01T23:20:33.690Z,3.65
2024-02-01T23:23:00.691Z,3.95
2024-02-01T23:25:27.347Z,4.10
2024-02-01T23:27:54.542Z,4.35
2024-02-01T23:30:22.114Z,3.58
2024-02-01T23:32:48.987Z,4.47
2024-02-01T23:35:16.904Z,4.68
2024-02-01T23:37:43.625Z,4.60
2024-02-01T23:40:12.070Z,4.20
2024-02-01T23:42:39.468Z,4.00
2024-02-01T23:45:06.760Z,4.28
2024-02-01T23:47:33.512Z,4.10
2024-02-01T23:50:00.290Z,4.22
2024-02-01T23:52:27.128Z,5.10
2024-02-01T23:54:54.003Z,4.90
2024-02-01T23:57:20.792Z,4.50
2024-02-01T23:59:47.613Z,4.57
